^^
Saratoga-Weather Station Historical Data
Daily Summary for June 18, 2021 Units:  Both    English   Metric
Daily Weekly Monthly Yearly Custom
  High: Low: Average:
Temperature: 50.2 °F /  10.1 °C 48.4 °F /  9.1 °C 48.9 °F /  9.4 °C
Dew Point: 48 °F /  8.9 °C 46.2 °F /  7.9 °C 46.9 °F /  8.3 °C
Humidity: 94% 92% 93%
Wind Speed: 8.9mph /  14.3km/h - 2.6mph /  4.2km/h
Wind Gust: 12mph /  19.3km/h - -
Wind- - West
Pressure: 29.9 in /  1013.9 hPa 29.9 in /  1011.5 hPa -
Precipitation: 0.08 in /  2.0 mm    
Historical Graphs
 
 
Tabular Data for June 18, 2021
Time Temperature Dew Point Pressure Wind Wind Speed Wind Gust Humidity Rainfall Rate (Hourly) solar
00:02 50.2 °F /  10.1 °C 48 °F /  8.9 °C 29.9in /  1011.5hPa WSW 2.9mph /  4.7km/h 12mph /  19.3km/h 92% 0.02in /  0.5mm 0 W/m2
00:07 50.2 °F /  10.1 °C 48 °F /  8.9 °C 29.9in /  1011.5hPa WSW 2.9mph /  4.7km/h 8mph /  12.9km/h 92% 0.02in /  0.5mm 0 W/m2
00:12 50.2 °F /  10.1 °C 48 °F /  8.9 °C 29.9in /  1011.9hPa West 2.9mph /  4.7km/h 10mph /  16.1km/h 92% 0.02in /  0.5mm 0 W/m2
00:17 50 °F /  10 °C 47.8 °F /  8.8 °C 29.9in /  1011.9hPa WSW 0.9mph /  1.4km/h 7mph /  11.3km/h 92% 0.02in /  0.5mm 0 W/m2
00:22 49.8 °F /  9.9 °C 47.7 °F /  8.7 °C 29.9in /  1011.9hPa SW 2.9mph /  4.7km/h 9mph /  14.5km/h 92% 0.02in /  0.5mm 0 W/m2
00:27 49.8 °F /  9.9 °C 47.7 °F /  8.7 °C 29.9in /  1011.9hPa West 2.9mph /  4.7km/h 5mph /  8km/h 92% 0.02in /  0.5mm 0 W/m2
00:32 49.8 °F /  9.9 °C 47.7 °F /  8.7 °C 29.9in /  1011.9hPa WSW 4mph /  6.4km/h 9mph /  14.5km/h 92% 0.02in /  0.5mm 0 W/m2
00:37 49.8 °F /  9.9 °C 47.7 °F /  8.7 °C 29.9in /  1011.9hPa West 4mph /  6.4km/h 9mph /  14.5km/h 92% 0.02in /  0.5mm 0 W/m2
00:42 49.6 °F /  9.8 °C 47.5 °F /  8.6 °C 29.9in /  1011.9hPa West 8.9mph /  14.3km/h 9mph /  14.5km/h 92% 0.02in /  0.5mm 0 W/m2
00:47 49.6 °F /  9.8 °C 47.5 °F /  8.6 °C 29.9in /  1011.9hPa West 0.9mph /  1.4km/h 4mph /  6.4km/h 92% 0.01in /  0.2mm 0 W/m2
00:52 49.5 °F /  9.7 °C 47.3 °F /  8.5 °C 29.9in /  1011.9hPa West 4mph /  6.4km/h 6mph /  9.7km/h 92% 0in /  0.0mm 0 W/m2
00:57 49.5 °F /  9.7 °C 47.3 °F /  8.5 °C 29.9in /  1011.9hPa WSW 2mph /  3.2km/h 3mph /  4.8km/h 92% 0in /  0.0mm 0 W/m2
01:02 49.3 °F /  9.6 °C 47.1 °F /  8.4 °C 29.9in /  1011.9hPa WSW 0.9mph /  1.4km/h 6mph /  9.7km/h 92% 0in /  0.0mm 0 W/m2
01:07 49.3 °F /  9.6 °C 47.1 °F /  8.4 °C 29.9in /  1011.9hPa West 4mph /  6.4km/h 4mph /  6.4km/h 92% 0in /  0.0mm 0 W/m2
01:12 49.1 °F /  9.5 °C 46.9 °F /  8.3 °C 29.9in /  1012.2hPa SW 6.9mph /  11.1km/h 12mph /  19.3km/h 92% 0in /  0.0mm 0 W/m2
01:17 49.1 °F /  9.5 °C 46.9 °F /  8.3 °C 29.9in /  1012.2hPa West 2.9mph /  4.7km/h 7mph /  11.3km/h 92% 0in /  0.0mm 0 W/m2
01:22 49.3 °F /  9.6 °C 47.1 °F /  8.4 °C 29.9in /  1012.2hPa WNW 2mph /  3.2km/h 12mph /  19.3km/h 92% 0in /  0.0mm 0 W/m2
01:27 49.3 °F /  9.6 °C 47.1 °F /  8.4 °C 29.9in /  1012.2hPa NW 2mph /  3.2km/h 5mph /  8km/h 92% 0in /  0.0mm 0 W/m2
01:32 49.3 °F /  9.6 °C 47.1 °F /  8.4 °C 29.9in /  1012.2hPa West 4mph /  6.4km/h 8mph /  12.9km/h 92% 0in /  0.0mm 0 W/m2
01:37 49.3 °F /  9.6 °C 47.1 °F /  8.4 °C 29.9in /  1011.9hPa West 2.9mph /  4.7km/h 7mph /  11.3km/h 92% 0in /  0.0mm 0 W/m2
01:42 49.3 °F /  9.6 °C 47.1 °F /  8.4 °C 29.9in /  1011.9hPa West 2.9mph /  4.7km/h 12mph /  19.3km/h 92% 0.01in /  0.2mm 0 W/m2
01:47 49.1 °F /  9.5 °C 46.9 °F /  8.3 °C 29.9in /  1011.9hPa West 6mph /  9.7km/h 9mph /  14.5km/h 92% 0.01in /  0.2mm 0 W/m2
01:52 48.9 °F /  9.4 °C 46.8 °F /  8.2 °C 29.9in /  1011.9hPa WNW 2mph /  3.2km/h 12mph /  19.3km/h 92% 0.01in /  0.2mm 0 W/m2
01:57 48.9 °F /  9.4 °C 46.8 °F /  8.2 °C 29.9in /  1011.9hPa West 4mph /  6.4km/h 8mph /  12.9km/h 92% 0.01in /  0.2mm 0 W/m2
02:02 48.7 °F /  9.3 °C 46.6 °F /  8.1 °C 29.9in /  1012.2hPa WSW 4.9mph /  7.9km/h 5mph /  8km/h 92% 0.01in /  0.2mm 0 W/m2
02:07 48.6 °F /  9.2 °C 46.4 °F /  8 °C 29.9in /  1012.2hPa WNW 2.9mph /  4.7km/h 4mph /  6.4km/h 92% 0.01in /  0.2mm 0 W/m2
02:12 48.4 °F /  9.1 °C 46.2 °F /  7.9 °C 29.9in /  1012.2hPa NW 2mph /  3.2km/h 6mph /  9.7km/h 92% 0.02in /  0.5mm 0 W/m2
02:17 48.4 °F /  9.1 °C 46.4 °F /  8 °C 29.9in /  1012.2hPa NNW 2mph /  3.2km/h 4mph /  6.4km/h 93% 0.02in /  0.5mm 0 W/m2
02:22 48.4 °F /  9.1 °C 46.4 °F /  8 °C 29.9in /  1012.2hPa West 0.9mph /  1.4km/h 4mph /  6.4km/h 93% 0.02in /  0.5mm 0 W/m2
02:27 48.4 °F /  9.1 °C 46.4 °F /  8 °C 29.9in /  1012.2hPa WNW 4mph /  6.4km/h 7mph /  11.3km/h 93% 0.02in /  0.5mm 0 W/m2
02:32 48.4 °F /  9.1 °C 46.4 °F /  8 °C 29.9in /  1012.2hPa West 4mph /  6.4km/h 7mph /  11.3km/h 93% 0.02in /  0.5mm 0 W/m2
02:37 48.4 °F /  9.1 °C 46.4 °F /  8 °C 29.9in /  1012.2hPa NW 2mph /  3.2km/h 4mph /  6.4km/h 93% 0.02in /  0.5mm 0 W/m2
02:42 48.4 °F /  9.1 °C 46.4 °F /  8 °C 29.9in /  1012.2hPa West 2.9mph /  4.7km/h 7mph /  11.3km/h 93% 0.01in /  0.2mm 0 W/m2
02:47 48.6 °F /  9.2 °C 46.6 °F /  8.1 °C 29.9in /  1012.2hPa West 2mph /  3.2km/h 3mph /  4.8km/h 93% 0.01in /  0.2mm 0 W/m2
02:52 48.6 °F /  9.2 °C 46.6 °F /  8.1 °C 29.9in /  1012.2hPa WNW 2mph /  3.2km/h 5mph /  8km/h 93% 0.01in /  0.2mm 0 W/m2
02:57 48.6 °F /  9.2 °C 46.6 °F /  8.1 °C 29.9in /  1012.2hPa West 0.9mph /  1.4km/h 2mph /  3.2km/h 93% 0.01in /  0.2mm 0 W/m2
03:02 48.6 °F /  9.2 °C 46.6 °F /  8.1 °C 29.9in /  1012.2hPa WNW 4mph /  6.4km/h 4mph /  6.4km/h 93% 0.01in /  0.2mm 0 W/m2
03:07 48.6 °F /  9.2 °C 46.6 °F /  8.1 °C 29.9in /  1012.2hPa NNW 0.9mph /  1.4km/h 1mph /  1.6km/h 93% 0.01in /  0.2mm 0 W/m2
03:12 48.7 °F /  9.3 °C 46.8 °F /  8.2 °C 29.9in /  1012.2hPa Calm   2mph /  3.2km/h 93% 0in /  0.0mm 0 W/m2
03:17 48.7 °F /  9.3 °C 46.8 °F /  8.2 °C 29.9in /  1012.5hPa NW 2mph /  3.2km/h 3mph /  4.8km/h 93% 0.02in /  0.5mm 0 W/m2
03:22 48.7 °F /  9.3 °C 46.8 °F /  8.2 °C 29.9in /  1012.5hPa WNW 6.9mph /  11.1km/h 9mph /  14.5km/h 93% 0.03in /  0.8mm 0 W/m2
03:27 48.7 °F /  9.3 °C 46.8 °F /  8.2 °C 29.9in /  1012.2hPa WNW 2.9mph /  4.7km/h 6mph /  9.7km/h 93% 0.03in /  0.8mm 0 W/m2
03:32 48.9 °F /  9.4 °C 46.9 °F /  8.3 °C 29.9in /  1012.5hPa West 2mph /  3.2km/h 6mph /  9.7km/h 93% 0.03in /  0.8mm 0 W/m2
03:37 48.9 °F /  9.4 °C 46.9 °F /  8.3 °C 29.9in /  1012.5hPa West 2mph /  3.2km/h 8mph /  12.9km/h 93% 0.03in /  0.8mm 0 W/m2
03:42 48.9 °F /  9.4 °C 46.9 °F /  8.3 °C 29.9in /  1012.5hPa WSW 6.9mph /  11.1km/h 7mph /  11.3km/h 93% 0.03in /  0.8mm 0 W/m2
03:47 48.9 °F /  9.4 °C 46.9 °F /  8.3 °C 29.9in /  1012.5hPa Calm   2mph /  3.2km/h 93% 0.03in /  0.8mm 0 W/m2
03:52 48.7 °F /  9.3 °C 46.8 °F /  8.2 °C 29.9in /  1012.2hPa WSW 6mph /  9.7km/h 6mph /  9.7km/h 93% 0.03in /  0.8mm 0 W/m2
03:57 48.7 °F /  9.3 °C 46.8 °F /  8.2 °C 29.9in /  1012.2hPa West 0.9mph /  1.4km/h 4mph /  6.4km/h 93% 0.03in /  0.8mm 0 W/m2
04:02 48.6 °F /  9.2 °C 46.6 °F /  8.1 °C 29.9in /  1012.5hPa Calm   2mph /  3.2km/h 93% 0.03in /  0.8mm 0 W/m2
04:07 48.6 °F /  9.2 °C 46.6 °F /  8.1 °C 29.9in /  1012.5hPa Calm   4mph /  6.4km/h 93% 0.03in /  0.8mm 0 W/m2
04:12 48.4 °F /  9.1 °C 46.8 °F /  8.2 °C 29.9in /  1012.5hPa WSW 0.9mph /  1.4km/h 3mph /  4.8km/h 94% 0.03in /  0.8mm 0 W/m2
04:17 48.6 °F /  9.2 °C 46.9 °F /  8.3 °C 29.9in /  1012.5hPa WSW 2.9mph /  4.7km/h 7mph /  11.3km/h 94% 0.02in /  0.5mm 0 W/m2
04:22 48.6 °F /  9.2 °C 46.9 °F /  8.3 °C 29.9in /  1012.5hPa WSW 0.9mph /  1.4km/h 2mph /  3.2km/h 94% 0in /  0.0mm 0 W/m2
04:27 48.7 °F /  9.3 °C 47.1 °F /  8.4 °C 29.9in /  1012.5hPa WNW 2mph /  3.2km/h 7mph /  11.3km/h 94% 0in /  0.0mm 0 W/m2
04:32 48.7 °F /  9.3 °C 47.1 °F /  8.4 °C 29.9in /  1012.5hPa WNW 2mph /  3.2km/h 4mph /  6.4km/h 94% 0in /  0.0mm 0 W/m2
04:37 48.7 °F /  9.3 °C 47.1 °F /  8.4 °C 29.9in /  1012.5hPa West 4mph /  6.4km/h 7mph /  11.3km/h 94% 0in /  0.0mm 0 W/m2
04:42 48.7 °F /  9.3 °C 47.1 °F /  8.4 °C 29.9in /  1012.9hPa West 2mph /  3.2km/h 5mph /  8km/h 94% 0.02in /  0.5mm 0 W/m2
04:47 48.7 °F /  9.3 °C 47.1 °F /  8.4 °C 29.9in /  1012.9hPa West 2mph /  3.2km/h 8mph /  12.9km/h 94% 0.03in /  0.8mm 0 W/m2
04:52 48.7 °F /  9.3 °C 47.1 °F /  8.4 °C 29.9in /  1012.9hPa NW 2.9mph /  4.7km/h 4mph /  6.4km/h 94% 0.03in /  0.8mm 0 W/m2
04:57 48.7 °F /  9.3 °C 46.8 °F /  8.2 °C 29.9in /  1012.9hPa Calm   8mph /  12.9km/h 93% 0.03in /  0.8mm 0 W/m2
05:02 48.7 °F /  9.3 °C 46.8 °F /  8.2 °C 29.9in /  1012.9hPa West 2.9mph /  4.7km/h 6mph /  9.7km/h 93% 0.03in /  0.8mm 0 W/m2
05:07 48.7 °F /  9.3 °C 46.8 °F /  8.2 °C 29.9in /  1012.9hPa West 6mph /  9.7km/h 8mph /  12.9km/h 93% 0.03in /  0.8mm 0 W/m2
05:12 48.7 °F /  9.3 °C 46.8 °F /  8.2 °C 29.9in /  1012.9hPa WSW 4.9mph /  7.9km/h 8mph /  12.9km/h 93% 0.03in /  0.8mm 0 W/m2
05:17 48.7 °F /  9.3 °C 46.8 °F /  8.2 °C 29.9in /  1012.9hPa WNW 4mph /  6.4km/h 9mph /  14.5km/h 93% 0.03in /  0.8mm 0 W/m2
05:22 48.6 °F /  9.2 °C 46.6 °F /  8.1 °C 29.9in /  1012.5hPa WSW 4mph /  6.4km/h 5mph /  8km/h 93% 0.03in /  0.8mm 0 W/m2
05:27 48.6 °F /  9.2 °C 46.6 °F /  8.1 °C 29.9in /  1012.5hPa WNW 2.9mph /  4.7km/h 9mph /  14.5km/h 93% 0.03in /  0.8mm 0 W/m2
05:32 48.6 °F /  9.2 °C 46.6 °F /  8.1 °C 29.9in /  1012.9hPa Calm   7mph /  11.3km/h 93% 0.03in /  0.8mm 0 W/m2
05:37 48.4 °F /  9.1 °C 46.4 °F /  8 °C 29.9in /  1012.9hPa WSW 4mph /  6.4km/h 5mph /  8km/h 93% 0.03in /  0.8mm 0 W/m2
05:42 48.4 °F /  9.1 °C 46.4 °F /  8 °C 29.9in /  1012.9hPa West 2.9mph /  4.7km/h 8mph /  12.9km/h 93% 0.02in /  0.5mm 0 W/m2
05:47 48.4 °F /  9.1 °C 46.4 °F /  8 °C 29.9in /  1012.9hPa WNW 4mph /  6.4km/h 7mph /  11.3km/h 93% 0in /  0.0mm 0 W/m2
05:52 48.4 °F /  9.1 °C 46.4 °F /  8 °C 29.9in /  1012.9hPa WSW 2mph /  3.2km/h 8mph /  12.9km/h 93% 0in /  0.0mm 0 W/m2
05:57 48.4 °F /  9.1 °C 46.4 °F /  8 °C 29.9in /  1012.9hPa WNW 6mph /  9.7km/h 9mph /  14.5km/h 93% 0in /  0.0mm 5 W/m2
06:02 48.4 °F /  9.1 °C 46.4 °F /  8 °C 29.9in /  1012.9hPa West 2mph /  3.2km/h 4mph /  6.4km/h 93% 0in /  0.0mm 7 W/m2
06:07 48.4 °F /  9.1 °C 46.4 °F /  8 °C 29.9in /  1012.9hPa WNW 4mph /  6.4km/h 9mph /  14.5km/h 93% 0in /  0.0mm 9 W/m2
06:12 48.4 °F /  9.1 °C 46.4 °F /  8 °C 29.9in /  1012.9hPa West 2mph /  3.2km/h 8mph /  12.9km/h 93% 0in /  0.0mm 11 W/m2
06:17 48.4 °F /  9.1 °C 46.4 °F /  8 °C 29.9in /  1013.2hPa NW 2mph /  3.2km/h 4mph /  6.4km/h 93% 0in /  0.0mm 14 W/m2
06:22 48.4 °F /  9.1 °C 46.4 °F /  8 °C 29.9in /  1012.9hPa WNW 0.9mph /  1.4km/h 3mph /  4.8km/h 93% 0in /  0.0mm 12 W/m2
06:27 48.6 °F /  9.2 °C 46.6 °F /  8.1 °C 29.9in /  1012.9hPa WNW 0.9mph /  1.4km/h 5mph /  8km/h 93% 0in /  0.0mm 16 W/m2
06:32 48.6 °F /  9.2 °C 46.6 °F /  8.1 °C 29.9in /  1012.9hPa Calm   2mph /  3.2km/h 93% 0in /  0.0mm 14 W/m2
06:38 48.6 °F /  9.2 °C 46.6 °F /  8.1 °C 29.9in /  1012.9hPa West 2.9mph /  4.7km/h 7mph /  11.3km/h 93% 0in /  0.0mm 19 W/m2
06:43 48.6 °F /  9.2 °C 46.6 °F /  8.1 °C 29.9in /  1012.9hPa West 2mph /  3.2km/h 4mph /  6.4km/h 93% 0in /  0.0mm 28 W/m2
06:48 48.7 °F /  9.3 °C 46.8 °F /  8.2 °C 29.9in /  1013.2hPa WSW 0.9mph /  1.4km/h 4mph /  6.4km/h 93% 0in /  0.0mm 30 W/m2
06:53 48.7 °F /  9.3 °C 46.8 °F /  8.2 °C 29.9in /  1013.2hPa WSW 2mph /  3.2km/h 6mph /  9.7km/h 93% 0in /  0.0mm 19 W/m2
06:58 48.9 °F /  9.4 °C 46.9 °F /  8.3 °C 29.9in /  1012.9hPa WNW 2.9mph /  4.7km/h 3mph /  4.8km/h 93% 0in /  0.0mm 26 W/m2
07:03 48.9 °F /  9.4 °C 46.9 °F /  8.3 °C 29.9in /  1013.2hPa West 2.9mph /  4.7km/h 4mph /  6.4km/h 93% 0in /  0.0mm 32 W/m2
07:08 48.9 °F /  9.4 °C 46.9 °F /  8.3 °C 29.9in /  1013.2hPa West 2mph /  3.2km/h 3mph /  4.8km/h 93% 0in /  0.0mm 35 W/m2
07:13 48.9 °F /  9.4 °C 46.9 °F /  8.3 °C 29.9in /  1013.2hPa West 0.9mph /  1.4km/h 7mph /  11.3km/h 93% 0in /  0.0mm 39 W/m2
07:18 49.1 °F /  9.5 °C 47.1 °F /  8.4 °C 29.9in /  1013.2hPa NW 2mph /  3.2km/h 3mph /  4.8km/h 93% 0in /  0.0mm 40 W/m2
07:23 49.3 °F /  9.6 °C 47.3 °F /  8.5 °C 29.9in /  1013.2hPa WSW 0.9mph /  1.4km/h 7mph /  11.3km/h 93% 0in /  0.0mm 35 W/m2
07:28 49.3 °F /  9.6 °C 47.3 °F /  8.5 °C 29.9in /  1013.2hPa WSW 0.9mph /  1.4km/h 5mph /  8km/h 93% 0in /  0.0mm 44 W/m2
07:33 49.3 °F /  9.6 °C 47.3 °F /  8.5 °C 29.9in /  1013.2hPa WNW 0.9mph /  1.4km/h 2mph /  3.2km/h 93% 0in /  0.0mm 46 W/m2
07:38 49.5 °F /  9.7 °C 47.5 °F /  8.6 °C 29.9in /  1013.5hPa West 2mph /  3.2km/h 4mph /  6.4km/h 93% 0in /  0.0mm 44 W/m2
07:43 49.5 °F /  9.7 °C 47.5 °F /  8.6 °C 29.9in /  1013.5hPa NW 0.9mph /  1.4km/h 2mph /  3.2km/h 93% 0in /  0.0mm 40 W/m2
07:48 49.5 °F /  9.7 °C 47.5 °F /  8.6 °C 29.9in /  1013.5hPa WNW 0.9mph /  1.4km/h 6mph /  9.7km/h 93% 0in /  0.0mm 63 W/m2
07:53 49.5 °F /  9.7 °C 47.3 °F /  8.5 °C 29.9in /  1013.5hPa WNW 2.9mph /  4.7km/h 7mph /  11.3km/h 92% 0in /  0.0mm 51 W/m2
07:58 49.5 °F /  9.7 °C 47.3 °F /  8.5 °C 29.9in /  1013.5hPa ENE 2.9mph /  4.7km/h 4mph /  6.4km/h 92% 0in /  0.0mm 54 W/m2
08:03 49.5 °F /  9.7 °C 47.3 °F /  8.5 °C 29.9in /  1013.5hPa WSW 2mph /  3.2km/h 4mph /  6.4km/h 92% 0in /  0.0mm 76 W/m2
08:08 49.6 °F /  9.8 °C 47.5 °F /  8.6 °C 29.9in /  1013.9hPa West 2.9mph /  4.7km/h 7mph /  11.3km/h 92% 0in /  0.0mm 67 W/m2
08:13 49.6 °F /  9.8 °C 47.5 °F /  8.6 °C 29.9in /  1013.9hPa NW 4.9mph /  7.9km/h 5mph /  8km/h 92% 0in /  0.0mm 95 W/m2
Juneau County Weather
Compliments of Weather Underground - 4 mb